createdAt,value
2018-09-13T00:00:09.713Z,20.90
2018-09-13T00:02:38.864Z,20.80
2018-09-13T00:05:08.042Z,21.00
2018-09-13T00:07:37.174Z,20.90
2018-09-13T00:10:12.905Z,20.90
2018-09-13T00:12:42.127Z,20.80
2018-09-13T00:15:11.251Z,20.80
2018-09-13T00:17:40.367Z,20.70
2018-09-13T00:20:09.529Z,20.90
2018-09-13T00:22:38.654Z,20.90
2018-09-13T00:25:07.780Z,20.80
2018-09-13T00:27:36.899Z,20.90
2018-09-13T00:30:06.752Z,21.00
2018-09-13T00:32:42.602Z,21.00
2018-09-13T00:35:11.740Z,21.00
2018-09-13T00:37:40.869Z,20.90
2018-09-13T00:40:10.027Z,21.00
2018-09-13T00:42:39.102Z,20.70
2018-09-13T00:45:08.256Z,20.70
2018-09-13T00:47:41.566Z,20.60
2018-09-13T00:50:10.992Z,20.60
2018-09-13T00:52:40.098Z,20.60
2018-09-13T00:55:09.224Z,20.60
2018-09-13T00:57:38.554Z,20.60
2018-09-13T01:00:08.166Z,20.70
2018-09-13T01:02:37.560Z,20.50
2018-09-13T01:05:06.808Z,20.40
2018-09-13T01:07:35.913Z,20.50
2018-09-13T01:10:05.086Z,20.50
2018-09-13T01:12:34.192Z,20.70
2018-09-13T01:15:03.376Z,20.80
2018-09-13T01:17:32.474Z,20.70
2018-09-13T01:20:01.573Z,20.80
2018-09-13T01:22:30.701Z,20.50
2018-09-13T01:24:59.810Z,20.50
2018-09-13T01:27:28.906Z,20.70
2018-09-13T01:29:58.362Z,20.30
2018-09-13T01:32:27.462Z,20.30
2018-09-13T01:34:56.601Z,20.40
2018-09-13T01:37:25.748Z,20.40
2018-09-13T01:39:54.923Z,20.30
2018-09-13T01:42:24.033Z,20.20
2018-09-13T01:44:53.107Z,20.20
2018-09-13T01:47:22.222Z,20.20
2018-09-13T01:49:51.341Z,20.40
2018-09-13T01:52:20.521Z,20.20
2018-09-13T01:54:49.635Z,20.10
2018-09-13T01:57:18.729Z,20.20
2018-09-13T01:59:47.929Z,20.00
2018-09-13T02:02:17.074Z,20.10
2018-09-13T02:04:46.219Z,20.20
2018-09-13T02:07:15.307Z,20.40
2018-09-13T02:09:44.463Z,20.30
2018-09-13T02:12:13.599Z,20.30
2018-09-13T02:14:42.778Z,20.00
2018-09-13T02:17:11.864Z,20.00
2018-09-13T02:19:40.959Z,20.20
2018-09-13T02:22:10.074Z,20.40
2018-09-13T02:24:39.175Z,20.20
2018-09-13T02:27:08.322Z,20.10
2018-09-13T02:29:37.424Z,20.10
2018-09-13T02:32:06.579Z,20.20
2018-09-13T02:34:35.721Z,20.30
2018-09-13T02:37:04.907Z,20.30
2018-09-13T02:39:33.995Z,20.20
2018-09-13T02:42:03.386Z,20.10
2018-09-13T02:44:32.493Z,20.20
2018-09-13T02:47:01.586Z,20.40
2018-09-13T02:49:30.722Z,20.30
2018-09-13T02:51:59.844Z,20.00
2018-09-13T02:54:28.963Z,19.90
2018-09-13T02:56:58.057Z,20.10
2018-09-13T02:59:27.185Z,20.10
2018-09-13T03:01:56.330Z,20.10
2018-09-13T03:04:25.456Z,19.90
2018-09-13T03:06:54.543Z,19.70
2018-09-13T03:09:23.652Z,19.70
2018-09-13T03:11:52.789Z,19.60
2018-09-13T03:14:21.901Z,19.50
2018-09-13T03:16:51.116Z,19.70
2018-09-13T03:19:20.191Z,19.70
2018-09-13T03:21:49.286Z,20.00
2018-09-13T03:24:18.386Z,20.10
2018-09-13T03:26:47.503Z,19.90
2018-09-13T03:29:16.663Z,19.90
2018-09-13T03:31:45.767Z,19.60
2018-09-13T03:34:14.924Z,19.80
2018-09-13T03:36:44.090Z,19.90
2018-09-13T03:39:13.533Z,20.00
2018-09-13T03:41:42.709Z,20.00
2018-09-13T03:44:11.801Z,19.80
2018-09-13T03:46:40.917Z,19.70
2018-09-13T03:49:10.026Z,19.60
2018-09-13T03:51:39.196Z,19.70
2018-09-13T03:54:08.338Z,19.90
2018-09-13T03:56:37.473Z,20.10
2018-09-13T03:59:06.648Z,20.20
2018-09-13T04:01:35.762Z,20.20
2018-09-13T04:04:04.942Z,20.20
2018-09-13T04:06:34.106Z,20.20
2018-09-13T04:09:04.664Z,20.30
2018-09-13T04:11:33.725Z,20.30
2018-09-13T04:14:02.892Z,20.40
2018-09-13T04:16:32.032Z,20.40
2018-09-13T04:19:01.234Z,20.30
2018-09-13T04:21:30.351Z,20.40
2018-09-13T04:23:59.845Z,20.40
2018-09-13T04:26:29.337Z,20.50
2018-09-13T04:28:58.462Z,20.40
2018-09-13T04:31:27.565Z,20.30
2018-09-13T04:33:57.622Z,20.30
2018-09-13T04:36:26.740Z,20.30
2018-09-13T04:38:55.859Z,20.30
2018-09-13T04:41:24.977Z,20.30
2018-09-13T04:43:54.592Z,20.30
2018-09-13T04:46:23.652Z,20.30
2018-09-13T04:48:52.758Z,20.30
2018-09-13T04:51:21.889Z,20.30
2018-09-13T04:53:50.994Z,20.30
2018-09-13T04:56:20.157Z,20.30
2018-09-13T04:58:49.280Z,20.30
2018-09-13T05:01:18.413Z,20.20
2018-09-13T05:03:47.514Z,20.30
2018-09-13T05:06:16.629Z,20.40
2018-09-13T05:08:45.733Z,20.50
2018-09-13T05:11:14.874Z,20.50
2018-09-13T05:13:43.992Z,20.60
2018-09-13T05:16:13.166Z,20.60
2018-09-13T05:18:42.278Z,20.40
2018-09-13T05:21:12.317Z,20.40
2018-09-13T05:23:41.470Z,20.60
2018-09-13T05:26:10.595Z,20.60
2018-09-13T05:28:39.807Z,20.60
2018-09-13T05:31:08.954Z,20.50
2018-09-13T05:33:38.128Z,20.40
2018-09-13T05:36:07.301Z,20.50
2018-09-13T05:38:36.447Z,20.50
2018-09-13T05:41:05.606Z,20.60
2018-09-13T05:43:34.753Z,20.70
2018-09-13T05:46:03.884Z,20.30
2018-09-13T05:48:32.995Z,20.50
2018-09-13T05:51:02.153Z,20.90
2018-09-13T05:53:31.309Z,21.30
2018-09-13T05:56:00.427Z,21.50
2018-09-13T05:58:29.561Z,21.70
2018-09-13T06:00:58.685Z,21.70
2018-09-13T06:03:28.420Z,21.40
2018-09-13T06:05:57.543Z,21.10
2018-09-13T06:08:26.684Z,21.00
2018-09-13T06:10:56.498Z,21.00
2018-09-13T06:13:25.694Z,21.00
2018-09-13T06:15:54.809Z,21.20
2018-09-13T06:18:24.542Z,21.00
2018-09-13T06:20:53.674Z,20.90
2018-09-13T06:23:22.799Z,20.70
2018-09-13T06:25:51.919Z,20.60
2018-09-13T06:28:21.062Z,20.70
2018-09-13T06:30:50.266Z,20.70
2018-09-13T06:33:19.414Z,20.80
2018-09-13T06:35:48.651Z,20.80
2018-09-13T06:38:18.005Z,20.80
2018-09-13T06:40:47.093Z,20.70
2018-09-13T06:43:16.253Z,20.70
2018-09-13T06:45:45.381Z,20.70
2018-09-13T06:48:14.517Z,20.90
2018-09-13T06:50:43.665Z,21.10
2018-09-13T06:53:12.785Z,21.00
2018-09-13T06:55:41.957Z,20.90
2018-09-13T06:58:11.127Z,20.80
2018-09-13T07:00:41.529Z,20.60
2018-09-13T07:03:10.726Z,20.60
2018-09-13T07:05:39.974Z,20.70
2018-09-13T07:08:09.116Z,20.90
2018-09-13T07:10:38.307Z,21.00
2018-09-13T07:13:07.453Z,20.90
2018-09-13T07:15:36.582Z,20.80
2018-09-13T07:18:06.167Z,20.80
2018-09-13T07:20:35.358Z,20.80
2018-09-13T07:23:04.475Z,20.70
2018-09-13T07:25:33.634Z,20.80
2018-09-13T07:28:02.757Z,20.80
2018-09-13T07:30:31.926Z,20.90
2018-09-13T07:33:01.081Z,21.00
2018-09-13T07:35:30.238Z,21.10
2018-09-13T07:37:59.361Z,21.30
2018-09-13T07:40:28.579Z,21.40
2018-09-13T07:42:57.794Z,21.50
2018-09-13T07:45:26.845Z,21.80
2018-09-13T07:47:56.237Z,21.80
2018-09-13T07:50:25.496Z,22.00
2018-09-13T07:52:55.000Z,22.40
2018-09-13T07:55:24.126Z,22.70
2018-09-13T07:57:53.309Z,23.00
2018-09-13T08:00:22.449Z,22.90
2018-09-13T08:02:51.603Z,22.90
2018-09-13T08:05:20.811Z,23.00
2018-09-13T08:07:50.101Z,23.10
2018-09-13T08:10:19.236Z,23.00
2018-09-13T08:12:48.414Z,23.00
2018-09-13T08:15:17.566Z,23.30
2018-09-13T08:17:46.738Z,23.70
2018-09-13T08:20:15.997Z,24.10
2018-09-13T08:22:45.123Z,24.00
2018-09-13T08:25:14.251Z,23.80
2018-09-13T08:27:43.478Z,23.90
2018-09-13T08:30:12.618Z,24.00
2018-09-13T08:32:41.794Z,24.00
2018-09-13T08:35:11.112Z,24.20
2018-09-13T08:37:40.167Z,24.20
2018-09-13T08:40:09.363Z,24.20
2018-09-13T08:42:38.565Z,24.30
2018-09-13T08:45:07.712Z,24.60
2018-09-13T08:47:36.944Z,25.00
2018-09-13T08:50:06.029Z,24.80
2018-09-13T08:52:35.157Z,24.60
2018-09-13T08:55:04.426Z,24.20
2018-09-13T08:57:33.551Z,24.30
2018-09-13T09:00:02.716Z,24.20
2018-09-13T09:02:31.850Z,24.20
2018-09-13T09:05:00.973Z,24.40
2018-09-13T09:07:30.119Z,24.50
2018-09-13T09:09:59.277Z,24.50
2018-09-13T09:12:28.454Z,24.70
2018-09-13T09:14:57.732Z,24.40
2018-09-13T09:17:26.841Z,24.40
2018-09-13T09:19:56.238Z,24.40
2018-09-13T09:22:25.754Z,24.10
2018-09-13T09:24:55.682Z,24.10
2018-09-13T09:27:25.083Z,24.30
2018-09-13T09:29:54.189Z,24.40
2018-09-13T09:32:23.354Z,24.50
2018-09-13T09:34:52.595Z,24.50
2018-09-13T09:37:21.671Z,24.50
2018-09-13T09:39:50.829Z,24.60
2018-09-13T09:42:19.918Z,24.40
2018-09-13T09:44:49.070Z,24.20
2018-09-13T09:47:18.241Z,24.20
2018-09-13T09:49:47.426Z,24.00
2018-09-13T09:52:16.797Z,24.10
2018-09-13T09:54:45.956Z,24.30
2018-09-13T09:57:15.112Z,24.20
2018-09-13T09:59:44.286Z,24.30
2018-09-13T10:02:23.714Z,24.40
2018-09-13T10:04:52.850Z,24.40
2018-09-13T10:07:22.006Z,24.40
2018-09-13T10:09:51.166Z,24.10
2018-09-13T10:12:20.369Z,24.00
2018-09-13T10:14:55.046Z,24.10
2018-09-13T10:17:29.477Z,24.10
2018-09-13T10:20:04.690Z,24.00
2018-09-13T10:22:39.138Z,23.90
2018-09-13T10:25:13.676Z,24.00
2018-09-13T10:27:48.094Z,24.00
2018-09-13T10:30:22.649Z,23.90
2018-09-13T10:32:57.254Z,23.80
2018-09-13T10:35:31.734Z,23.80
2018-09-13T10:39:09.758Z,23.80
2018-09-13T10:42:42.174Z,23.80
2018-09-13T10:45:16.746Z,23.70
2018-09-13T10:47:56.920Z,23.50
2018-09-13T10:50:24.948Z,23.60
2018-09-13T10:53:04.120Z,23.90
2018-09-13T10:55:33.366Z,23.90
2018-09-13T10:58:02.532Z,24.00
2018-09-13T11:00:31.834Z,24.00
2018-09-13T11:03:00.978Z,24.00
2018-09-13T11:05:30.274Z,24.20
2018-09-13T11:08:00.349Z,24.40
2018-09-13T11:10:29.549Z,24.60
2018-09-13T11:14:02.677Z,24.70
2018-09-13T11:16:31.862Z,24.80
2018-09-13T11:19:01.553Z,24.60
2018-09-13T11:21:30.733Z,24.70
2018-09-13T11:24:00.146Z,24.80
2018-09-13T11:26:29.553Z,24.70
2018-09-13T11:28:58.675Z,24.60
2018-09-13T11:31:28.020Z,24.60
2018-09-13T11:33:57.211Z,24.60
2018-09-13T11:36:26.366Z,24.80
2018-09-13T11:38:55.513Z,24.80
2018-09-13T11:41:24.938Z,24.70
2018-09-13T11:43:54.267Z,24.50
2018-09-13T11:46:23.442Z,24.50
2018-09-13T11:48:52.630Z,24.70
2018-09-13T11:51:21.868Z,24.80
2018-09-13T11:53:51.076Z,24.80
2018-09-13T11:56:20.204Z,24.70
2018-09-13T11:58:49.479Z,24.80
2018-09-13T12:01:18.667Z,25.00
2018-09-13T12:03:47.750Z,25.20
2018-09-13T12:06:16.886Z,25.10
2018-09-13T12:08:46.142Z,25.00
2018-09-13T12:11:15.243Z,25.00
2018-09-13T12:13:44.369Z,25.00
2018-09-13T12:16:13.590Z,25.20
2018-09-13T12:18:42.719Z,25.30
2018-09-13T12:21:11.873Z,25.30
2018-09-13T12:23:41.017Z,25.40
2018-09-13T12:26:10.161Z,25.20
2018-09-13T12:28:39.366Z,25.00
2018-09-13T12:31:08.550Z,24.60
2018-09-13T12:33:37.744Z,24.50
2018-09-13T12:36:07.176Z,24.30
2018-09-13T12:38:36.305Z,24.20
2018-09-13T12:41:06.007Z,24.40
2018-09-13T12:43:35.754Z,24.40
2018-09-13T12:46:04.964Z,24.60
2018-09-13T12:48:34.158Z,24.90
2018-09-13T12:51:03.313Z,25.10
2018-09-13T12:53:32.478Z,25.30
2018-09-13T12:56:01.634Z,25.30
2018-09-13T12:58:30.777Z,25.10
2018-09-13T13:01:00.050Z,24.80
2018-09-13T13:03:29.305Z,24.80
2018-09-13T13:05:59.355Z,24.70
2018-09-13T13:08:28.501Z,24.80
2018-09-13T13:10:57.736Z,24.80
2018-09-13T13:13:26.882Z,24.80
2018-09-13T13:15:56.042Z,24.80
2018-09-13T13:18:25.250Z,24.80
2018-09-13T13:20:54.426Z,24.80
2018-09-13T13:23:23.992Z,24.80
2018-09-13T13:25:53.448Z,25.00
2018-09-13T13:28:22.570Z,25.20
2018-09-13T13:30:52.060Z,25.30
2018-09-13T13:33:21.191Z,25.30
2018-09-13T13:35:50.347Z,25.40
2018-09-13T13:38:19.547Z,25.40
2018-09-13T13:40:48.742Z,25.40
2018-09-13T13:43:17.850Z,25.40
2018-09-13T13:45:47.007Z,25.40
2018-09-13T13:48:16.192Z,25.40
2018-09-13T13:50:45.395Z,25.50
2018-09-13T13:53:14.559Z,25.50
2018-09-13T13:55:43.704Z,25.60
2018-09-13T13:58:12.908Z,25.40
2018-09-13T14:00:42.082Z,25.30
2018-09-13T14:03:11.316Z,25.20
2018-09-13T14:05:40.685Z,25.20
2018-09-13T14:08:09.796Z,25.10
2018-09-13T14:10:39.048Z,25.00
2018-09-13T14:13:08.871Z,25.00
2018-09-13T14:15:38.004Z,25.00
2018-09-13T14:18:07.258Z,25.00
2018-09-13T14:20:36.434Z,24.90
2018-09-13T14:23:05.616Z,24.90
2018-09-13T14:25:34.883Z,24.90
2018-09-13T14:28:04.075Z,25.00
2018-09-13T14:30:34.264Z,25.10
2018-09-13T14:33:03.386Z,25.00
2018-09-13T14:35:32.563Z,25.00
2018-09-13T14:38:08.684Z,25.20
2018-09-13T14:40:37.811Z,25.30
2018-09-13T14:43:07.189Z,25.20
2018-09-13T14:45:36.341Z,25.20
2018-09-13T14:48:05.679Z,25.10
2018-09-13T14:50:34.983Z,25.00
2018-09-13T14:53:04.183Z,24.80
2018-09-13T14:55:33.343Z,24.70
2018-09-13T14:58:02.482Z,24.40
2018-09-13T15:00:31.625Z,24.20
2018-09-13T15:03:01.222Z,24.10
2018-09-13T15:05:30.419Z,24.10
2018-09-13T15:07:59.635Z,23.80
2018-09-13T15:10:28.746Z,23.60
2018-09-13T15:12:57.915Z,23.60
2018-09-13T15:15:27.086Z,23.60
2018-09-13T15:17:56.250Z,23.60
2018-09-13T15:20:25.577Z,23.40
2018-09-13T15:22:54.791Z,23.10
2018-09-13T15:25:23.999Z,23.10
2018-09-13T15:27:53.158Z,22.90
2018-09-13T15:30:22.305Z,22.70
2018-09-13T15:32:51.510Z,22.80
2018-09-13T15:35:20.715Z,22.70
2018-09-13T15:37:49.878Z,22.80
2018-09-13T15:40:19.021Z,22.80
2018-09-13T15:45:23.556Z,22.60
2018-09-13T15:47:52.674Z,22.50
2018-09-13T15:50:21.852Z,22.40
2018-09-13T15:52:51.084Z,22.20
2018-09-13T15:55:20.238Z,22.10
2018-09-13T15:57:49.426Z,22.10
2018-09-13T16:00:18.557Z,22.20
2018-09-13T16:02:47.691Z,22.10
2018-09-13T16:05:16.945Z,22.10
2018-09-13T16:07:46.150Z,22.00
2018-09-13T16:10:15.304Z,21.80
2018-09-13T16:12:44.532Z,21.70
2018-09-13T16:15:13.670Z,21.60
2018-09-13T16:17:42.908Z,21.50
2018-09-13T16:20:12.099Z,21.40
2018-09-13T16:22:41.309Z,21.00
2018-09-13T16:25:10.469Z,20.80
2018-09-13T16:27:39.583Z,20.60
2018-09-13T16:30:08.847Z,20.40
2018-09-13T16:32:37.990Z,20.30
2018-09-13T16:35:07.646Z,20.30
2018-09-13T16:37:42.086Z,20.10
2018-09-13T16:40:16.749Z,20.10
2018-09-13T16:42:52.412Z,20.20
2018-09-13T16:45:25.523Z,20.10
2018-09-13T16:47:57.715Z,20.10
2018-09-13T16:50:26.849Z,20.00
2018-09-13T16:52:55.999Z,20.20
2018-09-13T16:55:25.276Z,20.10
2018-09-13T16:57:54.478Z,20.10
2018-09-13T17:00:25.301Z,20.20
2018-09-13T17:02:54.935Z,20.10
2018-09-13T17:05:24.350Z,20.10
2018-09-13T17:07:53.534Z,19.90
2018-09-13T17:10:22.741Z,19.90
2018-09-13T17:12:51.967Z,19.90
2018-09-13T17:15:21.164Z,19.90
2018-09-13T17:17:50.326Z,20.00
2018-09-13T17:20:19.496Z,20.00
2018-09-13T17:22:48.654Z,20.00
2018-09-13T17:25:17.826Z,20.10
2018-09-13T17:27:46.985Z,19.90
2018-09-13T17:30:16.123Z,20.00
2018-09-13T17:32:45.267Z,20.10
2018-09-13T17:35:14.507Z,20.10
2018-09-13T17:37:43.671Z,20.00
2018-09-13T17:40:12.906Z,19.70
2018-09-13T17:42:42.500Z,19.80
2018-09-13T17:45:11.689Z,19.80
2018-09-13T17:47:40.875Z,19.80
2018-09-13T17:50:10.063Z,19.80
2018-09-13T17:52:39.271Z,19.80
2018-09-13T17:55:08.455Z,19.80
2018-09-13T17:57:37.680Z,19.80
2018-09-13T18:00:08.527Z,19.70
2018-09-13T18:02:37.666Z,19.70
2018-09-13T18:05:06.994Z,19.60
2018-09-13T18:07:36.131Z,19.60
2018-09-13T18:10:05.786Z,19.50
2018-09-13T18:12:34.958Z,19.50
2018-09-13T18:15:04.250Z,19.50
2018-09-13T18:17:33.422Z,19.60
2018-09-13T18:20:02.671Z,19.60
2018-09-13T18:22:31.839Z,19.60
2018-09-13T18:25:01.002Z,19.60
2018-09-13T18:27:30.165Z,19.70
2018-09-13T18:29:59.348Z,19.60
2018-09-13T18:32:28.490Z,19.60
2018-09-13T18:34:57.663Z,19.60
2018-09-13T18:37:26.809Z,19.60
2018-09-13T18:39:56.043Z,19.50
2018-09-13T18:42:25.576Z,19.60
2018-09-13T18:44:55.330Z,19.60
2018-09-13T18:47:24.490Z,19.60
2018-09-13T18:49:53.655Z,19.60
2018-09-13T18:52:22.840Z,19.60
2018-09-13T18:54:51.993Z,19.60
2018-09-13T18:57:21.118Z,19.60
2018-09-13T18:59:50.284Z,19.60
2018-09-13T19:02:19.462Z,19.60
2018-09-13T19:04:48.575Z,19.50
2018-09-13T19:07:17.739Z,19.50
2018-09-13T19:09:46.873Z,19.50
2018-09-13T19:12:16.228Z,19.40
2018-09-13T19:14:45.430Z,19.50
2018-09-13T19:17:14.631Z,19.30
2018-09-13T19:19:43.824Z,19.20
2018-09-13T19:22:12.951Z,19.20
2018-09-13T19:24:42.159Z,19.20
2018-09-13T19:27:11.307Z,19.20
2018-09-13T19:29:40.453Z,19.20
2018-09-13T19:32:09.673Z,19.20
2018-09-13T19:34:38.872Z,19.20
2018-09-13T19:37:08.013Z,19.20
2018-09-13T19:39:37.292Z,19.20
2018-09-13T19:42:06.452Z,19.20
2018-09-13T19:44:35.590Z,19.30
2018-09-13T19:47:04.892Z,19.20
2018-09-13T19:49:33.999Z,19.30
2018-09-13T19:52:03.186Z,19.20
2018-09-13T19:54:32.542Z,19.20
2018-09-13T19:57:01.715Z,19.20
2018-09-13T19:59:30.882Z,19.20
2018-09-13T20:02:00.128Z,19.20
2018-09-13T20:04:29.283Z,19.20
2018-09-13T20:06:58.446Z,19.20
2018-09-13T20:09:27.649Z,19.20
2018-09-13T20:11:56.824Z,19.20
2018-09-13T20:14:25.927Z,19.20
2018-09-13T20:16:55.112Z,19.30
2018-09-13T20:19:24.247Z,19.20
2018-09-13T20:21:53.416Z,19.20
2018-09-13T20:24:23.398Z,19.30
2018-09-13T20:26:52.642Z,19.30
2018-09-13T20:29:21.849Z,19.30
2018-09-13T20:31:51.019Z,19.40
2018-09-13T20:34:20.196Z,19.30
2018-09-13T20:36:49.515Z,19.30
2018-09-13T20:39:18.858Z,19.30
2018-09-13T20:41:48.052Z,19.30
2018-09-13T20:44:17.198Z,19.30
2018-09-13T20:46:46.372Z,19.30
2018-09-13T20:49:15.565Z,19.30
2018-09-13T20:51:44.819Z,19.40
2018-09-13T20:54:14.053Z,19.40
2018-09-13T20:56:43.237Z,19.40
2018-09-13T20:59:12.428Z,19.30
2018-09-13T21:01:41.688Z,19.30
2018-09-13T21:04:10.924Z,19.40
2018-09-13T21:06:40.057Z,19.30
2018-09-13T21:09:11.151Z,19.30
2018-09-13T21:11:40.680Z,19.30
2018-09-13T21:14:09.845Z,19.30
2018-09-13T21:16:39.043Z,19.30
2018-09-13T21:19:08.202Z,19.30
2018-09-13T21:21:37.373Z,19.30
2018-09-13T21:24:06.638Z,19.30
2018-09-13T21:26:35.717Z,19.30
2018-09-13T21:29:04.944Z,19.30
2018-09-13T21:31:34.222Z,19.20
2018-09-13T21:34:03.426Z,19.30
2018-09-13T21:36:32.561Z,19.30
2018-09-13T21:39:01.739Z,19.30
2018-09-13T21:41:30.877Z,19.20
2018-09-13T21:44:00.029Z,19.10
2018-09-13T21:46:29.193Z,19.10
2018-09-13T21:48:58.329Z,19.20
2018-09-13T21:51:27.758Z,19.20
2018-09-13T21:53:57.029Z,19.30
2018-09-13T21:56:26.178Z,19.30
2018-09-13T21:58:55.377Z,19.20
2018-09-13T22:01:24.564Z,19.20
2018-09-13T22:03:53.759Z,19.30
2018-09-13T22:06:23.162Z,19.20
2018-09-13T22:08:52.300Z,19.10
2018-09-13T22:11:21.538Z,19.10
2018-09-13T22:13:51.329Z,19.30
2018-09-13T22:16:20.453Z,19.30
2018-09-13T22:18:49.597Z,19.20
2018-09-13T22:21:19.247Z,19.00
2018-09-13T22:23:48.418Z,19.10
2018-09-13T22:26:17.548Z,18.80
2018-09-13T22:28:46.723Z,18.70
2018-09-13T22:31:15.865Z,18.80
2018-09-13T22:33:45.038Z,18.90
2018-09-13T22:36:14.194Z,18.90
2018-09-13T22:38:43.343Z,18.80
2018-09-13T22:41:12.468Z,18.80
2018-09-13T22:43:46.936Z,18.90
2018-09-13T22:46:16.078Z,18.80
2018-09-13T22:48:45.285Z,18.80
2018-09-13T22:51:14.473Z,18.90
2018-09-13T22:53:43.662Z,18.90
2018-09-13T22:56:13.119Z,18.80
2018-09-13T22:58:42.266Z,18.90
2018-09-13T23:01:11.639Z,18.90
2018-09-13T23:03:40.768Z,18.90
2018-09-13T23:06:09.930Z,18.90
2018-09-13T23:08:39.288Z,18.70
2018-09-13T23:11:08.423Z,18.70
2018-09-13T23:13:37.578Z,18.80
2018-09-13T23:16:07.103Z,18.70
2018-09-13T23:18:36.152Z,18.80
2018-09-13T23:21:05.347Z,18.80
2018-09-13T23:23:34.487Z,18.80
2018-09-13T23:26:03.620Z,18.70
2018-09-13T23:28:32.777Z,18.80
2018-09-13T23:31:01.950Z,18.70
2018-09-13T23:33:31.104Z,18.80
2018-09-13T23:36:00.250Z,18.80
2018-09-13T23:38:29.397Z,18.50
2018-09-13T23:40:58.810Z,18.60
2018-09-13T23:43:27.998Z,18.50
2018-09-13T23:45:57.197Z,18.60
2018-09-13T23:48:26.325Z,18.50
2018-09-13T23:50:55.507Z,18.60
2018-09-13T23:53:24.632Z,18.70
2018-09-13T23:55:53.803Z,18.60
2018-09-13T23:58:22.956Z,18.70
